sensor_id;sensor_type;location;lat;lon;timestamp;pressure;altitude;pressure_sealevel;temperature;humidity
13029;BME280;6581;42.662;23.402;2022-10-26T00:01:10;95781.66;;;16.82;75.20
13029;BME280;6581;42.662;23.402;2022-10-26T00:03:39;95780.50;;;16.83;75.59
13029;BME280;6581;42.662;23.402;2022-10-26T00:06:08;95780.91;;;16.86;75.64
13029;BME280;6581;42.662;23.402;2022-10-26T00:08:36;95777.09;;;16.79;75.38
13029;BME280;6581;42.662;23.402;2022-10-26T00:11:04;95776.31;;;16.79;75.27
13029;BME280;6581;42.662;23.402;2022-10-26T00:13:32;95775.94;;;16.80;75.55
13029;BME280;6581;42.662;23.402;2022-10-26T00:15:59;95781.28;;;16.80;75.34
13029;BME280;6581;42.662;23.402;2022-10-26T00:18:28;95777.88;;;16.76;75.60
13029;BME280;6581;42.662;23.402;2022-10-26T00:20:55;95781.31;;;16.77;75.70
13029;BME280;6581;42.662;23.402;2022-10-26T00:23:52;95784.72;;;16.74;75.53
13029;BME280;6581;42.662;23.402;2022-10-26T00:26:19;95771.38;;;16.67;75.67
13029;BME280;6581;42.662;23.402;2022-10-26T00:28:46;95774.03;;;16.70;75.34
13029;BME280;6581;42.662;23.402;2022-10-26T00:31:14;95783.19;;;16.73;75.59
13029;BME280;6581;42.662;23.402;2022-10-26T00:33:43;95775.16;;;16.73;75.29
13029;BME280;6581;42.662;23.402;2022-10-26T00:36:11;95783.97;;;16.73;74.75
13029;BME280;6581;42.662;23.402;2022-10-26T00:38:41;95782.06;;;16.74;74.63
13029;BME280;6581;42.662;23.402;2022-10-26T00:41:13;95784.38;;;16.72;74.07
13029;BME280;6581;42.662;23.402;2022-10-26T00:43:41;95785.53;;;16.67;73.90
13029;BME280;6581;42.662;23.402;2022-10-26T00:46:11;95784.34;;;16.65;74.25
13029;BME280;6581;42.662;23.402;2022-10-26T00:48:42;95779.41;;;16.63;74.28
13029;BME280;6581;42.662;23.402;2022-10-26T00:51:14;95779.38;;;16.60;74.33
13029;BME280;6581;42.662;23.402;2022-10-26T00:53:43;95779.78;;;16.58;74.13
13029;BME280;6581;42.662;23.402;2022-10-26T00:56:11;95777.88;;;16.62;74.01
13029;BME280;6581;42.662;23.402;2022-10-26T00:58:38;95774.06;;;16.63;73.65
13029;BME280;6581;42.662;23.402;2022-10-26T01:01:06;95775.56;;;16.57;74.18
13029;BME280;6581;42.662;23.402;2022-10-26T01:03:59;95765.25;;;16.52;74.44
13029;BME280;6581;42.662;23.402;2022-10-26T01:06:29;95770.97;;;16.44;75.27
13029;BME280;6581;42.662;23.402;2022-10-26T01:08:57;95772.91;;;16.39;75.22
13029;BME280;6581;42.662;23.402;2022-10-26T01:11:24;95767.56;;;16.36;75.47
13029;BME280;6581;42.662;23.402;2022-10-26T01:13:52;95779.75;;;16.37;75.49
13029;BME280;6581;42.662;23.402;2022-10-26T01:16:32;95771.38;;;16.35;75.55
13029;BME280;6581;42.662;23.402;2022-10-26T01:19:47;95773.66;;;16.29;75.90
13029;BME280;6581;42.662;23.402;2022-10-26T01:22:25;95771.75;;;16.26;75.79
13029;BME280;6581;42.662;23.402;2022-10-26T01:25:02;95779.38;;;16.17;76.49
13029;BME280;6581;42.662;23.402;2022-10-26T01:27:34;95780.53;;;16.20;76.63
13029;BME280;6581;42.662;23.402;2022-10-26T01:30:31;95781.25;;;16.13;77.07
13029;BME280;6581;42.662;23.402;2022-10-26T01:33:09;95776.69;;;16.07;77.77
13029;BME280;6581;42.662;23.402;2022-10-26T01:35:48;95779.34;;;15.89;78.52
13029;BME280;6581;42.662;23.402;2022-10-26T01:38:24;95777.00;;;15.66;80.07
13029;BME280;6581;42.662;23.402;2022-10-26T01:40:57;95777.25;;;15.40;81.66
13029;BME280;6581;42.662;23.402;2022-10-26T01:43:30;95772.22;;;15.21;82.92
13029;BME280;6581;42.662;23.402;2022-10-26T01:46:01;95761.47;;;15.03;83.98
13029;BME280;6581;42.662;23.402;2022-10-26T01:48:29;95773.28;;;15.02;84.09
13029;BME280;6581;42.662;23.402;2022-10-26T01:50:58;95770.19;;;14.89;84.74
13029;BME280;6581;42.662;23.402;2022-10-26T01:53:27;95773.56;;;14.83;84.92
13029;BME280;6581;42.662;23.402;2022-10-26T01:55:54;95769.66;;;14.70;85.32
13029;BME280;6581;42.662;23.402;2022-10-26T02:01:34;95775.00;;;14.22;87.86
13029;BME280;6581;42.662;23.402;2022-10-26T02:04:15;95774.84;;;14.04;88.99
13029;BME280;6581;42.662;23.402;2022-10-26T02:06:53;95772.47;;;13.92;89.44
13029;BME280;6581;42.662;23.402;2022-10-26T02:09:28;95776.44;;;13.72;90.98
13029;BME280;6581;42.662;23.402;2022-10-26T02:12:04;95776.38;;;13.65;91.58
13029;BME280;6581;42.662;23.402;2022-10-26T02:14:40;95782.06;;;13.63;91.11
13029;BME280;6581;42.662;23.402;2022-10-26T02:17:18;95787.31;;;13.56;91.28
13029;BME280;6581;42.662;23.402;2022-10-26T02:19:52;95789.19;;;13.56;90.95
13029;BME280;6581;42.662;23.402;2022-10-26T02:22:25;95788.44;;;13.55;90.34
13029;BME280;6581;42.662;23.402;2022-10-26T02:24:55;95792.19;;;13.51;90.66
13029;BME280;6581;42.662;23.402;2022-10-26T02:27:26;95796.22;;;13.38;91.20
13029;BME280;6581;42.662;23.402;2022-10-26T02:29:55;95793.13;;;13.36;91.47
13029;BME280;6581;42.662;23.402;2022-10-26T02:32:28;95789.66;;;13.31;91.23
13029;BME280;6581;42.662;23.402;2022-10-26T02:34:59;95791.16;;;13.29;91.79
13029;BME280;6581;42.662;23.402;2022-10-26T02:37:29;95796.03;;;13.23;91.95
13029;BME280;6581;42.662;23.402;2022-10-26T02:39:59;95795.38;;;13.04;93.35
13029;BME280;6581;42.662;23.402;2022-10-26T02:42:29;95804.00;;;12.97;93.25
13029;BME280;6581;42.662;23.402;2022-10-26T02:45:00;95802.56;;;12.73;95.52
13029;BME280;6581;42.662;23.402;2022-10-26T02:47:30;95800.66;;;12.74;96.22
13029;BME280;6581;42.662;23.402;2022-10-26T02:49:58;95799.78;;;12.66;95.74
13029;BME280;6581;42.662;23.402;2022-10-26T02:52:34;95796.06;;;12.71;95.14
13029;BME280;6581;42.662;23.402;2022-10-26T02:55:09;95799.53;;;12.75;95.08
13029;BME280;6581;42.662;23.402;2022-10-26T02:57:40;95804.50;;;12.76;94.69
13029;BME280;6581;42.662;23.402;2022-10-26T03:00:09;95804.72;;;12.64;95.33
13029;BME280;6581;42.662;23.402;2022-10-26T03:03:04;95807.28;;;12.61;95.60
13029;BME280;6581;42.662;23.402;2022-10-26T03:05:32;95813.06;;;12.66;95.59
13029;BME280;6581;42.662;23.402;2022-10-26T03:08:01;95810.78;;;12.65;95.42
13029;BME280;6581;42.662;23.402;2022-10-26T03:10:29;95804.63;;;12.61;96.06
13029;BME280;6581;42.662;23.402;2022-10-26T03:12:58;95806.38;;;12.50;97.42
13029;BME280;6581;42.662;23.402;2022-10-26T03:15:26;95802.19;;;12.49;99.73
13029;BME280;6581;42.662;23.402;2022-10-26T03:17:53;95814.69;;;12.48;98.43
13029;BME280;6581;42.662;23.402;2022-10-26T03:20:22;95820.25;;;12.39;98.76
13029;BME280;6581;42.662;23.402;2022-10-26T03:22:49;95817.69;;;12.47;98.99
13029;BME280;6581;42.662;23.402;2022-10-26T03:25:16;95821.13;;;12.47;100.00
13029;BME280;6581;42.662;23.402;2022-10-26T03:27:45;95826.81;;;12.46;99.47
13029;BME280;6581;42.662;23.402;2022-10-26T03:30:12;95821.41;;;12.42;98.98
13029;BME280;6581;42.662;23.402;2022-10-26T03:32:39;95827.09;;;12.40;100.00
13029;BME280;6581;42.662;23.402;2022-10-26T03:35:07;95825.28;;;12.44;100.00
13029;BME280;6581;42.662;23.402;2022-10-26T03:37:36;95824.25;;;12.53;99.31
13029;BME280;6581;42.662;23.402;2022-10-26T03:40:03;95827.34;;;12.55;99.57
13029;BME280;6581;42.662;23.402;2022-10-26T03:42:32;95828.84;;;12.56;100.00
13029;BME280;6581;42.662;23.402;2022-10-26T03:44:59;95831.59;;;12.59;100.00
13029;BME280;6581;42.662;23.402;2022-10-26T03:47:26;95829.28;;;12.35;100.00
13029;BME280;6581;42.662;23.402;2022-10-26T03:49:54;95823.63;;;12.36;100.00
13029;BME280;6581;42.662;23.402;2022-10-26T03:52:21;95832.66;;;12.32;100.00
13029;BME280;6581;42.662;23.402;2022-10-26T03:54:51;95828.88;;;12.33;100.00
13029;BME280;6581;42.662;23.402;2022-10-26T03:57:18;95841.63;;;12.24;100.00
13029;BME280;6581;42.662;23.402;2022-10-26T03:59:45;95836.69;;;12.22;100.00
13029;BME280;6581;42.662;23.402;2022-10-26T04:02:12;95834.31;;;12.17;100.00
13029;BME280;6581;42.662;23.402;2022-10-26T04:04:39;95832.66;;;12.09;100.00
13029;BME280;6581;42.662;23.402;2022-10-26T04:07:06;95834.53;;;12.09;100.00
13029;BME280;6581;42.662;23.402;2022-10-26T04:09:34;95839.44;;;12.07;99.89
13029;BME280;6581;42.662;23.402;2022-10-26T04:12:02;95843.50;;;12.01;100.00
13029;BME280;6581;42.662;23.402;2022-10-26T04:14:30;95839.13;;;11.89;99.61
13029;BME280;6581;42.662;23.402;2022-10-26T04:16:58;95846.38;;;11.92;99.77
13029;BME280;6581;42.662;23.402;2022-10-26T04:19:26;95837.50;;;11.84;99.75
13029;BME280;6581;42.662;23.402;2022-10-26T04:21:53;95848.84;;;11.81;99.88
13029;BME280;6581;42.662;23.402;2022-10-26T04:24:46;95843.81;;;11.76;99.49
13029;BME280;6581;42.662;23.402;2022-10-26T04:27:16;95832.19;;;11.65;100.00
13029;BME280;6581;42.662;23.402;2022-10-26T04:29:44;95832.91;;;11.62;100.00
13029;BME280;6581;42.662;23.402;2022-10-26T04:32:11;95825.22;;;11.57;100.00
13029;BME280;6581;42.662;23.402;2022-10-26T04:34:40;95831.69;;;11.60;99.40
13029;BME280;6581;42.662;23.402;2022-10-26T04:37:07;95841.25;;;11.64;100.00
13029;BME280;6581;42.662;23.402;2022-10-26T04:39:34;95847.00;;;11.66;100.00
13029;BME280;6581;42.662;23.402;2022-10-26T04:42:01;95848.81;;;11.62;100.00
13029;BME280;6581;42.662;23.402;2022-10-26T04:44:30;95855.56;;;11.60;100.00
13029;BME280;6581;42.662;23.402;2022-10-26T04:46:57;95840.78;;;11.59;100.00
13029;BME280;6581;42.662;23.402;2022-10-26T04:49:24;95841.41;;;11.52;100.00
13029;BME280;6581;42.662;23.402;2022-10-26T04:51:51;95847.16;;;11.54;100.00
13029;BME280;6581;42.662;23.402;2022-10-26T04:54:19;95851.97;;;11.48;100.00
13029;BME280;6581;42.662;23.402;2022-10-26T04:56:46;95856.38;;;11.41;100.00
13029;BME280;6581;42.662;23.402;2022-10-26T04:59:13;95865.06;;;11.41;100.00
13029;BME280;6581;42.662;23.402;2022-10-26T05:01:42;95868.69;;;11.33;100.00
13029;BME280;6581;42.662;23.402;2022-10-26T05:04:09;95866.31;;;11.28;100.00
13029;BME280;6581;42.662;23.402;2022-10-26T05:06:36;95871.34;;;11.33;100.00
13029;BME280;6581;42.662;23.402;2022-10-26T05:09:03;95867.00;;;11.25;100.00
13029;BME280;6581;42.662;23.402;2022-10-26T05:11:30;95872.19;;;11.18;100.00
13029;BME280;6581;42.662;23.402;2022-10-26T05:14:22;95868.00;;;11.17;100.00
13029;BME280;6581;42.662;23.402;2022-10-26T05:16:51;95872.25;;;11.22;100.00
13029;BME280;6581;42.662;23.402;2022-10-26T05:19:20;95861.63;;;11.22;100.00
13029;BME280;6581;42.662;23.402;2022-10-26T05:21:47;95858.34;;;11.28;100.00
13029;BME280;6581;42.662;23.402;2022-10-26T05:24:14;95867.16;;;11.32;100.00
13029;BME280;6581;42.662;23.402;2022-10-26T05:26:41;95869.47;;;11.34;100.00
13029;BME280;6581;42.662;23.402;2022-10-26T05:29:09;95884.53;;;11.30;100.00
13029;BME280;6581;42.662;23.402;2022-10-26T05:31:42;95887.97;;;11.30;100.00
13029;BME280;6581;42.662;23.402;2022-10-26T05:34:11;95892.00;;;11.24;100.00
13029;BME280;6581;42.662;23.402;2022-10-26T05:36:38;95892.16;;;11.31;100.00
13029;BME280;6581;42.662;23.402;2022-10-26T05:39:06;95898.91;;;11.29;100.00
13029;BME280;6581;42.662;23.402;2022-10-26T05:41:33;95900.97;;;11.35;100.00
13029;BME280;6581;42.662;23.402;2022-10-26T05:44:00;95896.22;;;11.44;100.00
13029;BME280;6581;42.662;23.402;2022-10-26T05:46:27;95897.97;;;11.56;100.00
13029;BME280;6581;42.662;23.402;2022-10-26T05:48:54;95902.38;;;11.68;100.00
13029;BME280;6581;42.662;23.402;2022-10-26T05:51:22;95908.09;;;11.70;100.00
13029;BME280;6581;42.662;23.402;2022-10-26T05:53:50;95909.19;;;11.84;100.00
13029;BME280;6581;42.662;23.402;2022-10-26T05:56:32;95910.78;;;11.89;100.00
13029;BME280;6581;42.662;23.402;2022-10-26T05:59:02;95921.91;;;11.94;100.00
13029;BME280;6581;42.662;23.402;2022-10-26T06:01:38;95920.84;;;11.99;100.00
13029;BME280;6581;42.662;23.402;2022-10-26T06:04:17;95917.16;;;12.04;100.00
13029;BME280;6581;42.662;23.402;2022-10-26T06:06:53;95919.59;;;12.12;100.00
13029;BME280;6581;42.662;23.402;2022-10-26T06:09:21;95928.59;;;12.27;99.65
13029;BME280;6581;42.662;23.402;2022-10-26T06:11:49;95926.47;;;12.36;98.88
13029;BME280;6581;42.662;23.402;2022-10-26T06:14:17;95928.91;;;12.44;98.34
13029;BME280;6581;42.662;23.402;2022-10-26T06:16:53;95935.28;;;12.63;97.34
13029;BME280;6581;42.662;23.402;2022-10-26T06:19:38;95934.72;;;12.73;96.70
13029;BME280;6581;42.662;23.402;2022-10-26T06:22:19;95936.25;;;12.74;96.13
13029;BME280;6581;42.662;23.402;2022-10-26T06:24:55;95939.84;;;12.85;95.68
13029;BME280;6581;42.662;23.402;2022-10-26T06:27:33;95938.94;;;13.00;95.13
13029;BME280;6581;42.662;23.402;2022-10-26T06:30:06;95945.38;;;12.99;95.10
13029;BME280;6581;42.662;23.402;2022-10-26T06:32:35;95935.00;;;13.13;94.48
13029;BME280;6581;42.662;23.402;2022-10-26T06:35:13;95940.31;;;13.13;95.04
13029;BME280;6581;42.662;23.402;2022-10-26T06:37:46;95942.00;;;13.25;94.39
13029;BME280;6581;42.662;23.402;2022-10-26T06:40:16;95944.09;;;13.39;93.38
13029;BME280;6581;42.662;23.402;2022-10-26T06:42:44;95945.66;;;13.43;92.90
13029;BME280;6581;42.662;23.402;2022-10-26T06:45:12;95947.31;;;13.51;92.55
13029;BME280;6581;42.662;23.402;2022-10-26T06:47:46;95951.63;;;13.59;92.76
13029;BME280;6581;42.662;23.402;2022-10-26T06:50:26;95950.56;;;13.67;93.27
13029;BME280;6581;42.662;23.402;2022-10-26T06:53:05;95951.50;;;13.79;92.18
13029;BME280;6581;42.662;23.402;2022-10-26T06:55:39;95955.72;;;13.83;92.04
13029;BME280;6581;42.662;23.402;2022-10-26T06:58:10;95961.94;;;13.94;91.51
13029;BME280;6581;42.662;23.402;2022-10-26T07:00:40;95966.22;;;14.02;91.86
13029;BME280;6581;42.662;23.402;2022-10-26T07:03:08;95962.75;;;13.98;92.09
13029;BME280;6581;42.662;23.402;2022-10-26T07:05:35;95960.84;;;13.99;92.48
13029;BME280;6581;42.662;23.402;2022-10-26T07:08:04;95960.50;;;14.00;93.24
13029;BME280;6581;42.662;23.402;2022-10-26T07:10:32;95965.06;;;14.00;94.54
13029;BME280;6581;42.662;23.402;2022-10-26T07:13:00;95952.91;;;14.02;94.96
13029;BME280;6581;42.662;23.402;2022-10-26T07:15:27;95963.72;;;14.16;94.46
13029;BME280;6581;42.662;23.402;2022-10-26T07:17:54;95961.47;;;14.18;94.95
13029;BME280;6581;42.662;23.402;2022-10-26T07:20:21;95957.72;;;14.23;95.17
13029;BME280;6581;42.662;23.402;2022-10-26T07:22:53;95955.50;;;14.29;95.24
13029;BME280;6581;42.662;23.402;2022-10-26T07:25:23;95951.13;;;14.43;94.86
13029;BME280;6581;42.662;23.402;2022-10-26T07:27:56;95956.16;;;14.52;95.22
13029;BME280;6581;42.662;23.402;2022-10-26T07:30:23;95952.00;;;14.58;94.25
13029;BME280;6581;42.662;23.402;2022-10-26T07:32:57;95948.22;;;14.59;94.36
13029;BME280;6581;42.662;23.402;2022-10-26T07:35:24;95951.38;;;14.72;94.11
13029;BME280;6581;42.662;23.402;2022-10-26T07:37:55;95939.28;;;14.81;93.62
13029;BME280;6581;42.662;23.402;2022-10-26T07:40:24;95945.78;;;14.84;93.49
13029;BME280;6581;42.662;23.402;2022-10-26T07:42:52;95943.19;;;14.94;93.19
13029;BME280;6581;42.662;23.402;2022-10-26T07:45:21;95941.03;;;15.07;92.83
13029;BME280;6581;42.662;23.402;2022-10-26T07:47:49;95941.47;;;15.16;92.27
13029;BME280;6581;42.662;23.402;2022-10-26T07:50:16;95932.38;;;15.21;91.53
13029;BME280;6581;42.662;23.402;2022-10-26T07:52:43;95933.16;;;15.25;91.26
13029;BME280;6581;42.662;23.402;2022-10-26T07:55:11;95933.94;;;15.32;90.67
13029;BME280;6581;42.662;23.402;2022-10-26T07:57:40;95939.72;;;15.38;90.79
13029;BME280;6581;42.662;23.402;2022-10-26T08:00:08;95940.53;;;15.49;90.45
13029;BME280;6581;42.662;23.402;2022-10-26T08:02:36;95936.81;;;15.57;89.96
13029;BME280;6581;42.662;23.402;2022-10-26T08:05:04;95939.53;;;15.68;89.32
13029;BME280;6581;42.662;23.402;2022-10-26T08:07:31;95936.56;;;15.80;88.81
13029;BME280;6581;42.662;23.402;2022-10-26T08:09:58;95935.09;;;15.96;88.27
13029;BME280;6581;42.662;23.402;2022-10-26T08:12:26;95947.38;;;16.12;87.47
13029;BME280;6581;42.662;23.402;2022-10-26T08:14:54;95947.38;;;16.15;85.94
13029;BME280;6581;42.662;23.402;2022-10-26T08:17:47;95932.53;;;16.32;85.59
13029;BME280;6581;42.662;23.402;2022-10-26T08:20:14;95929.88;;;16.42;84.46
13029;BME280;6581;42.662;23.402;2022-10-26T08:22:41;95935.25;;;16.53;83.14
13029;BME280;6581;42.662;23.402;2022-10-26T08:25:09;95934.88;;;16.51;82.34
13029;BME280;6581;42.662;23.402;2022-10-26T08:27:36;95928.81;;;16.61;81.61
13029;BME280;6581;42.662;23.402;2022-10-26T08:30:05;95931.50;;;16.72;82.00
13029;BME280;6581;42.662;23.402;2022-10-26T08:32:33;95930.75;;;16.86;81.08
13029;BME280;6581;42.662;23.402;2022-10-26T08:35:00;95934.94;;;17.01;80.41
13029;BME280;6581;42.662;23.402;2022-10-26T08:37:27;95929.59;;;17.11;79.87
13029;BME280;6581;42.662;23.402;2022-10-26T08:39:54;95933.41;;;17.17;77.56
13029;BME280;6581;42.662;23.402;2022-10-26T08:42:26;95936.84;;;17.21;77.72
13029;BME280;6581;42.662;23.402;2022-10-26T08:44:59;95934.56;;;17.27;77.24
13029;BME280;6581;42.662;23.402;2022-10-26T08:47:31;95934.91;;;17.33;76.56
13029;BME280;6581;42.662;23.402;2022-10-26T08:50:04;95930.34;;;17.40;76.59
13029;BME280;6581;42.662;23.402;2022-10-26T08:52:35;95927.25;;;17.45;75.72
13029;BME280;6581;42.662;23.402;2022-10-26T08:55:12;95931.06;;;17.55;75.49
13029;BME280;6581;42.662;23.402;2022-10-26T08:57:44;95929.16;;;17.66;74.50
13029;BME280;6581;42.662;23.402;2022-10-26T09:00:17;95940.63;;;17.70;73.02
13029;BME280;6581;42.662;23.402;2022-10-26T09:02:49;95934.13;;;17.78;72.89
13029;BME280;6581;42.662;23.402;2022-10-26T09:05:19;95942.50;;;17.84;72.11
13029;BME280;6581;42.662;23.402;2022-10-26T09:07:52;95943.25;;;17.88;72.38
13029;BME280;6581;42.662;23.402;2022-10-26T09:10:38;95942.50;;;17.87;69.72
13029;BME280;6581;42.662;23.402;2022-10-26T09:13:13;95939.41;;;17.96;68.16
13029;BME280;6581;42.662;23.402;2022-10-26T09:15:55;95945.13;;;18.05;68.25
13029;BME280;6581;42.662;23.402;2022-10-26T09:18:34;95943.19;;;18.09;69.13
13029;BME280;6581;42.662;23.402;2022-10-26T09:21:12;95940.09;;;18.14;68.53
13029;BME280;6581;42.662;23.402;2022-10-26T09:24:01;95937.03;;;18.12;64.63
13029;BME280;6581;42.662;23.402;2022-10-26T09:26:32;95938.59;;;18.06;65.01
13029;BME280;6581;42.662;23.402;2022-10-26T09:29:06;95935.53;;;18.07;65.68
13029;BME280;6581;42.662;23.402;2022-10-26T09:31:39;95936.22;;;18.22;67.20
13029;BME280;6581;42.662;23.402;2022-10-26T09:34:15;95930.41;;;18.34;66.39
13029;BME280;6581;42.662;23.402;2022-10-26T09:36:44;95936.16;;;18.36;65.40
13029;BME280;6581;42.662;23.402;2022-10-26T09:39:16;95940.38;;;18.37;64.53
13029;BME280;6581;42.662;23.402;2022-10-26T09:41:47;95935.66;;;18.52;64.71
13029;BME280;6581;42.662;23.402;2022-10-26T09:44:42;95927.59;;;18.63;64.72
13029;BME280;6581;42.662;23.402;2022-10-26T09:47:14;95929.06;;;18.71;61.82
13029;BME280;6581;42.662;23.402;2022-10-26T09:50:21;95927.16;;;18.71;60.46
13029;BME280;6581;42.662;23.402;2022-10-26T09:52:50;95918.63;;;18.87;60.33
13029;BME280;6581;42.662;23.402;2022-10-26T09:55:17;95920.13;;;18.91;59.03
13029;BME280;6581;42.662;23.402;2022-10-26T09:57:48;95929.66;;;18.96;59.53
13029;BME280;6581;42.662;23.402;2022-10-26T10:00:18;95918.81;;;19.07;57.29
13029;BME280;6581;42.662;23.402;2022-10-26T10:02:49;95907.66;;;19.12;57.28
13029;BME280;6581;42.662;23.402;2022-10-26T10:05:27;95910.00;;;19.10;57.60
13029;BME280;6581;42.662;23.402;2022-10-26T10:08:18;95901.09;;;19.20;58.49
13029;BME280;6581;42.662;23.402;2022-10-26T10:11:06;95905.94;;;19.32;58.68
13029;BME280;6581;42.662;23.402;2022-10-26T10:13:35;95905.09;;;19.42;57.60
13029;BME280;6581;42.662;23.402;2022-10-26T10:16:05;95902.75;;;19.48;56.41
13029;BME280;6581;42.662;23.402;2022-10-26T10:18:34;95890.81;;;19.52;56.31
13029;BME280;6581;42.662;23.402;2022-10-26T10:21:05;95891.84;;;19.62;55.79
13029;BME280;6581;42.662;23.402;2022-10-26T10:23:34;95892.13;;;19.71;54.83
13029;BME280;6581;42.662;23.402;2022-10-26T10:26:05;95894.41;;;19.72;53.93
13029;BME280;6581;42.662;23.402;2022-10-26T10:28:32;95884.03;;;19.74;53.88
13029;BME280;6581;42.662;23.402;2022-10-26T10:31:02;95889.38;;;19.78;54.29
13029;BME280;6581;42.662;23.402;2022-10-26T10:33:36;95870.88;;;19.83;53.45
13029;BME280;6581;42.662;23.402;2022-10-26T10:36:08;95880.41;;;19.88;51.22
13029;BME280;6581;42.662;23.402;2022-10-26T10:38:41;95881.03;;;19.99;51.23
13029;BME280;6581;42.662;23.402;2022-10-26T10:41:16;95878.63;;;20.08;50.67
13029;BME280;6581;42.662;23.402;2022-10-26T10:43:46;95879.25;;;20.19;50.09
13029;BME280;6581;42.662;23.402;2022-10-26T10:46:23;95870.03;;;20.20;50.92
13029;BME280;6581;42.662;23.402;2022-10-26T10:49:00;95878.44;;;20.22;50.76
13029;BME280;6581;42.662;23.402;2022-10-26T10:51:35;95867.19;;;20.31;50.11
13029;BME280;6581;42.662;23.402;2022-10-26T10:54:06;95871.72;;;20.38;50.39
13029;BME280;6581;42.662;23.402;2022-10-26T10:56:46;95857.81;;;20.43;49.87
13029;BME280;6581;42.662;23.402;2022-10-26T10:59:32;95858.78;;;20.56;50.55
13029;BME280;6581;42.662;23.402;2022-10-26T11:02:42;95853.94;;;20.70;49.30
13029;BME280;6581;42.662;23.402;2022-10-26T11:08:18;95844.56;;;20.78;49.17
13029;BME280;6581;42.662;23.402;2022-10-26T11:10:50;95859.03;;;20.88;48.18
13029;BME280;6581;42.662;23.402;2022-10-26T11:13:23;95846.25;;;20.92;48.65
13029;BME280;6581;42.662;23.402;2022-10-26T11:15:57;95849.59;;;21.00;47.99
13029;BME280;6581;42.662;23.402;2022-10-26T11:18:30;95847.66;;;21.00;48.42
13029;BME280;6581;42.662;23.402;2022-10-26T11:21:02;95846.03;;;21.06;48.19
13029;BME280;6581;42.662;23.402;2022-10-26T11:23:37;95846.44;;;21.05;47.38
13029;BME280;6581;42.662;23.402;2022-10-26T11:26:11;95847.44;;;21.14;47.52
13029;BME280;6581;42.662;23.402;2022-10-26T11:29:09;95838.13;;;21.19;47.52
13029;BME280;6581;42.662;23.402;2022-10-26T11:31:42;95847.25;;;21.25;47.92
13029;BME280;6581;42.662;23.402;2022-10-26T11:34:20;95834.97;;;21.24;47.24
13029;BME280;6581;42.662;23.402;2022-10-26T11:36:56;95838.13;;;21.19;47.56
13029;BME280;6581;42.662;23.402;2022-10-26T11:39:35;95836.19;;;21.19;46.81
13029;BME280;6581;42.662;23.402;2022-10-26T11:42:10;95832.06;;;21.35;47.02
13029;BME280;6581;42.662;23.402;2022-10-26T11:44:46;95834.84;;;21.51;47.26
13029;BME280;6581;42.662;23.402;2022-10-26T11:47:18;95831.81;;;21.49;46.27
13029;BME280;6581;42.662;23.402;2022-10-26T11:49:52;95828.13;;;21.59;46.41
13029;BME280;6581;42.662;23.402;2022-10-26T11:52:27;95826.84;;;21.67;46.68
13029;BME280;6581;42.662;23.402;2022-10-26T11:54:58;95822.81;;;21.75;45.86
13029;BME280;6581;42.662;23.402;2022-10-26T11:57:27;95822.03;;;21.75;44.88
13029;BME280;6581;42.662;23.402;2022-10-26T11:59:58;95825.84;;;21.77;45.31
13029;BME280;6581;42.662;23.402;2022-10-26T12:02:31;95822.25;;;21.84;44.47
13029;BME280;6581;42.662;23.402;2022-10-26T12:05:05;95823.16;;;21.97;44.21
13029;BME280;6581;42.662;23.402;2022-10-26T12:07:38;95806.47;;;22.18;44.24
13029;BME280;6581;42.662;23.402;2022-10-26T12:10:18;95812.00;;;22.31;43.57
13029;BME280;6581;42.662;23.402;2022-10-26T12:12:49;95816.38;;;22.25;42.54
13029;BME280;6581;42.662;23.402;2022-10-26T12:15:24;95819.16;;;22.21;41.94
13029;BME280;6581;42.662;23.402;2022-10-26T12:18:01;95814.25;;;22.16;41.45
13029;BME280;6581;42.662;23.402;2022-10-26T12:20:50;95812.50;;;22.26;40.44
13029;BME280;6581;42.662;23.402;2022-10-26T12:23:19;95810.56;;;22.26;41.28
13029;BME280;6581;42.662;23.402;2022-10-26T12:25:48;95808.44;;;22.34;40.38
13029;BME280;6581;42.662;23.402;2022-10-26T12:28:39;95821.09;;;22.21;38.89
13029;BME280;6581;42.662;23.402;2022-10-26T12:31:40;95806.00;;;22.23;39.11
13029;BME280;6581;42.662;23.402;2022-10-26T12:34:10;95807.94;;;22.23;38.54
13029;BME280;6581;42.662;23.402;2022-10-26T12:36:48;95808.69;;;22.23;38.08
13029;BME280;6581;42.662;23.402;2022-10-26T12:39:27;95805.25;;;22.23;38.02
13029;BME280;6581;42.662;23.402;2022-10-26T12:41:58;95804.06;;;22.24;37.86
13029;BME280;6581;42.662;23.402;2022-10-26T12:44:36;95812.75;;;22.31;37.63
13029;BME280;6581;42.662;23.402;2022-10-26T12:47:06;95802.72;;;22.32;37.20
13029;BME280;6581;42.662;23.402;2022-10-26T12:49:57;95804.50;;;22.38;36.80
13029;BME280;6581;42.662;23.402;2022-10-26T12:52:48;95803.81;;;22.34;36.65
13029;BME280;6581;42.662;23.402;2022-10-26T12:55:26;95810.97;;;22.25;36.18
13029;BME280;6581;42.662;23.402;2022-10-26T12:58:07;95804.81;;;22.24;35.80
13029;BME280;6581;42.662;23.402;2022-10-26T13:00:41;95810.56;;;22.26;36.28
13029;BME280;6581;42.662;23.402;2022-10-26T13:03:22;95803.38;;;22.20;36.45
13029;BME280;6581;42.662;23.402;2022-10-26T13:06:33;95815.91;;;22.10;35.92
13029;BME280;6581;42.662;23.402;2022-10-26T13:09:07;95808.00;;;22.19;36.39
13029;BME280;6581;42.662;23.402;2022-10-26T13:11:36;95806.00;;;22.23;36.13
13029;BME280;6581;42.662;23.402;2022-10-26T13:14:47;95806.50;;;22.34;36.48
13029;BME280;6581;42.662;23.402;2022-10-26T13:17:23;95815.38;;;22.35;36.26
13029;BME280;6581;42.662;23.402;2022-10-26T13:19:55;95821.84;;;22.21;35.58
13029;BME280;6581;42.662;23.402;2022-10-26T13:22:23;95825.06;;;22.16;35.46
13029;BME280;6581;42.662;23.402;2022-10-26T13:24:52;95823.38;;;22.22;35.05
13029;BME280;6581;42.662;23.402;2022-10-26T13:27:26;95822.94;;;22.24;35.00
13029;BME280;6581;42.662;23.402;2022-10-26T13:30:33;95814.78;;;22.27;34.68
13029;BME280;6581;42.662;23.402;2022-10-26T13:33:02;95809.97;;;22.35;34.29